Time;durP1;ratioP1;P1;durP2;ratioP2;P2;SDS_P1;SDS_P2;PMS_P1;PMS_P2;Temp;Humidity;BMP_temperature;BMP_pressure;BME280_temperature;BME280_humidity;BME280_pressure;Samples;Min_cycle;Max_cycle;Signal;HPM_P1;HPM_P2
2021/09/16 00:02:03;;;;;;;10.55;4.08;;;;;;;6.99;91.23;100440.01;1718494;81;22167;-74
2021/09/16 00:04:30;;;;;;;14.13;4.95;;;;;;;6.98;91.22;100440.91;1711129;83;21125;-73
2021/09/16 00:06:56;;;;;;;11.75;4.80;;;;;;;6.93;91.22;100441.84;1727220;83;21050;-73
2021/09/16 00:09:23;;;;;;;10.25;4.60;;;;;;;6.88;91.08;100439.77;1727199;83;21042;-74
2021/09/16 00:11:49;;;;;;;11.10;4.85;;;;;;;6.79;91.09;100432.06;1716754;82;21112;-74
2021/09/16 00:14:21;;;;;;;13.45;5.10;;;;;;;6.82;91.08;100439.85;1728540;82;21382;-74
2021/09/16 00:16:49;;;;;;;10.85;5.03;;;;;;;6.77;91.17;100437.77;1702069;84;21061;-74
2021/09/16 00:19:15;;;;;;;14.35;5.12;;;;;;;6.76;91.64;100435.16;1728197;83;21053;-76
2021/09/16 00:21:45;;;;;;;20.82;5.78;;;;;;;6.75;91.91;100433.00;1700659;83;21659;-74
2021/09/16 00:24:13;;;;;;;12.75;4.80;;;;;;;6.76;92.19;100432.09;1728591;83;21037;-74
2021/09/16 00:26:41;;;;;;;12.20;5.37;;;;;;;6.77;92.63;100439.07;1731483;82;21062;-74
2021/09/16 00:29:09;;;;;;;10.38;5.05;;;;;;;6.78;93.25;100435.55;1739938;82;21016;-75
2021/09/16 00:31:36;;;;;;;9.03;4.20;;;;;;;6.77;93.43;100439.07;1740129;81;21174;-74
2021/09/16 00:34:03;;;;;;;5.95;3.40;;;;;;;6.77;93.79;100427.75;1739961;82;21017;-75
2021/09/16 00:36:30;;;;;;;13.10;5.28;;;;;;;6.76;94.11;100434.70;1735204;82;21067;-76
2021/09/16 00:38:56;;;;;;;12.13;4.92;;;;;;;6.73;93.92;100429.53;1710390;83;21159;-74
2021/09/16 00:41:28;;;;;;;8.68;3.77;;;;;;;6.67;93.57;100429.63;1710259;82;21082;-76
2021/09/16 00:43:56;;;;;;;11.57;3.87;;;;;;;6.66;93.88;100435.77;1709995;83;21543;-77
2021/09/16 00:46:26;;;;;;;5.95;2.62;;;;;;;6.64;94.10;100437.53;1710530;82;21605;-75
2021/09/16 00:48:54;;;;;;;10.72;4.28;;;;;;;6.62;94.50;100442.78;1710626;83;22080;-75
2021/09/16 00:51:22;;;;;;;12.37;5.65;;;;;;;6.62;95.05;100447.16;1710065;83;21074;-75
2021/09/16 00:53:51;;;;;;;13.35;5.05;;;;;;;6.60;95.09;100441.08;1710453;83;21665;-75
2021/09/16 00:56:20;;;;;;;11.95;5.40;;;;;;;6.61;95.40;100448.06;1710349;82;21051;-75
2021/09/16 00:58:50;;;;;;;12.75;5.62;;;;;;;6.60;95.83;100447.20;1694182;83;21062;-72
2021/09/16 01:01:18;;;;;;;13.93;6.07;;;;;;;6.61;95.95;100442.83;1710493;83;21313;-72
2021/09/16 01:03:45;;;;;;;13.83;5.72;;;;;;;6.60;95.97;100446.31;1710140;82;21167;-70
2021/09/16 01:06:12;;;;;;;15.00;6.92;;;;;;;6.58;96.11;100448.98;1710041;82;21019;-70
2021/09/16 01:08:39;;;;;;;13.53;6.97;;;;;;;6.57;96.48;100446.38;1710283;83;21598;-71
2021/09/16 01:11:06;;;;;;;12.03;6.58;;;;;;;6.54;96.54;100441.20;1694000;83;21089;-72
2021/09/16 01:13:41;;;;;;;10.08;4.90;;;;;;;6.50;96.32;100441.22;1709367;83;21050;-72
2021/09/16 01:16:05;;;;;;;11.88;5.40;;;;;;;6.43;96.26;100439.59;1709606;84;22001;-72
2021/09/16 01:18:31;;;;;;;14.05;5.05;;;;;;;6.40;96.26;100440.95;1715401;82;21064;-73
2021/09/16 01:20:58;;;;;;;12.93;6.65;;;;;;;6.39;96.43;100443.13;1736830;82;21032;-73
2021/09/16 01:23:26;;;;;;;14.15;6.80;;;;;;;6.37;96.42;100437.06;1736595;82;21562;-73
2021/09/16 01:25:53;;;;;;;12.30;6.33;;;;;;;6.35;96.24;100441.48;1735364;82;21084;-72
2021/09/16 01:28:20;;;;;;;10.45;4.78;;;;;;;6.30;96.15;100438.04;1735169;82;21144;-72
2021/09/16 01:30:47;;;;;;;21.57;5.80;;;;;;;6.29;96.28;100437.63;1734933;82;21481;-72
2021/09/16 01:33:14;;;;;;;11.83;5.50;;;;;;;6.30;96.70;100439.34;1723712;83;21065;-73
2021/09/16 01:35:41;;;;;;;15.32;6.30;;;;;;;6.30;96.95;100440.66;1754765;81;21406;-74
2021/09/16 01:38:08;;;;;;;14.80;6.15;;;;;;;6.31;97.16;100438.48;1725199;83;21058;-73
2021/09/16 01:40:34;;;;;;;13.28;6.10;;;;;;;6.31;97.19;100439.79;1723864;83;21289;-73
2021/09/16 01:43:01;;;;;;;14.70;6.87;;;;;;;6.29;96.97;100437.63;1723243;83;21321;-72
2021/09/16 01:45:29;;;;;;;14.80;6.35;;;;;;;6.25;96.85;100439.86;1723445;83;21072;-74
2021/09/16 01:47:57;;;;;;;15.93;6.42;;;;;;;6.20;96.86;100436.45;1723278;83;21065;-73
2021/09/16 01:50:26;;;;;;;12.50;6.55;;;;;;;6.17;97.00;100437.82;1723464;83;21457;-72
2021/09/16 01:52:54;;;;;;;20.20;8.18;;;;;;;6.13;97.12;100438.73;1723569;83;21076;-73
2021/09/16 01:55:21;;;;;;;18.80;7.62;;;;;;;6.11;97.27;100440.06;1723788;83;21105;-73
2021/09/16 01:57:48;;;;;;;15.05;6.70;;;;;;;6.09;97.37;100437.45;1723023;83;21049;-72
2021/09/16 02:00:15;;;;;;;13.05;6.05;;;;;;;6.11;97.51;100442.67;1723453;83;21576;-74
2021/09/16 02:02:42;;;;;;;14.90;7.12;;;;;;;6.12;97.67;100433.96;1723162;83;21069;-73
2021/09/16 02:05:09;;;;;;;15.03;6.55;;;;;;;6.14;97.55;100436.53;1723425;83;21150;-73
2021/09/16 02:07:35;;;;;;;10.15;5.45;;;;;;;6.13;97.51;100445.28;1723401;83;21010;-72
2021/09/16 02:10:05;;;;;;;16.70;7.10;;;;;;;6.12;97.42;100443.53;1723462;83;21100;-74
2021/09/16 02:12:32;;;;;;;17.77;7.42;;;;;;;6.13;97.58;100446.13;1723510;83;21085;-73
2021/09/16 02:14:59;;;;;;;13.35;5.30;;;;;;;6.16;97.71;100446.53;1721142;83;21120;-71
2021/09/16 02:17:25;;;;;;;12.20;4.58;;;;;;;6.16;97.57;100445.22;1720420;83;21520;-71
2021/09/16 02:19:53;;;;;;;11.78;5.60;;;;;;;6.16;97.50;100447.84;1720135;83;21584;-72
2021/09/16 02:22:20;;;;;;;12.35;6.97;;;;;;;6.15;97.76;100436.52;1720343;83;21065;-71
2021/09/16 02:24:46;;;;;;;21.02;7.90;;;;;;;6.16;97.96;100445.22;1721029;83;21064;-70
2021/09/16 02:27:13;;;;;;;13.68;7.08;;;;;;;6.16;98.13;100435.62;1751781;81;21080;-72
2021/09/16 02:29:39;;;;;;;19.32;7.45;;;;;;;6.15;98.46;100425.20;1723487;83;21490;-73
2021/09/16 02:32:07;;;;;;;12.30;7.42;;;;;;;6.17;98.54;100436.52;1723663;83;21161;-72
2021/09/16 02:34:33;;;;;;;15.10;7.70;;;;;;;6.15;98.66;100425.20;1723637;83;21522;-72
2021/09/16 02:37:00;;;;;;;14.40;7.67;;;;;;;6.16;98.92;100430.39;1723729;83;21063;-73
2021/09/16 02:39:28;;;;;;;16.97;8.55;;;;;;;6.15;99.05;100427.82;1723597;82;21054;-72
2021/09/16 02:41:54;;;;;;;20.97;9.23;;;;;;;6.11;99.12;100420.90;1723673;82;22203;-73
2021/09/16 02:44:20;;;;;;;18.75;9.23;;;;;;;6.10;99.41;100425.27;1723794;82;21198;-69
2021/09/16 02:46:47;;;;;;;21.15;10.45;;;;;;;6.09;99.64;100423.08;1723731;82;21047;-73
2021/09/16 02:49:13;;;;;;;19.40;9.68;;;;;;;6.06;99.80;100423.13;1723612;82;21066;-73
2021/09/16 02:51:40;;;;;;;22.82;7.97;;;;;;;6.05;99.93;100420.10;1723730;82;21021;-72
2021/09/16 02:54:08;;;;;;;18.45;8.70;;;;;;;6.04;100.00;100418.36;1723791;83;21143;-72
2021/09/16 02:56:36;;;;;;;14.80;7.03;;;;;;;6.05;100.00;100433.17;1723700;82;21253;-73
2021/09/16 02:59:02;;;;;;;21.73;7.72;;;;;;;6.04;100.00;100431.43;1723811;83;21545;-73
2021/09/16 03:01:30;;;;;;;23.10;7.72;;;;;;;6.05;100.00;100426.64;1723105;83;21034;-72
2021/09/16 03:03:57;;;;;;;19.87;9.05;;;;;;;6.06;100.00;100423.13;1723596;83;21246;-73
2021/09/16 03:06:23;;;;;;;11.88;5.90;;;;;;;6.10;100.00;100421.34;1723629;83;21156;-75
2021/09/16 03:08:51;;;;;;;25.17;8.75;;;;;;;6.11;100.00;100413.05;1723599;82;21085;-72
2021/09/16 03:11:18;;;;;;;22.00;9.50;;;;;;;6.12;100.00;100416.08;1723431;83;21061;-73
2021/09/16 03:13:46;;;;;;;18.73;8.68;;;;;;;6.13;100.00;100419.98;1723362;82;21070;-74
2021/09/16 03:16:13;;;;;;;18.10;8.25;;;;;;;6.15;100.00;100418.22;1723699;82;21086;-73
2021/09/16 03:18:41;;;;;;;22.10;8.68;;;;;;;6.18;100.00;100427.31;1723622;82;21148;-73
2021/09/16 03:21:09;;;;;;;22.40;9.78;;;;;;;6.25;100.00;100425.48;1723687;83;21010;-71
2021/09/16 03:23:37;;;;;;;18.42;8.88;;;;;;;6.31;100.00;100434.55;1723706;82;21062;-71
2021/09/16 03:26:03;;;;;;;20.25;9.05;;;;;;;6.38;100.00;100441.88;1695281;82;21075;-71
2021/09/16 03:28:37;;;;;;;18.57;9.00;;;;;;;6.41;100.00;100436.13;1694568;84;21051;-71
2021/09/16 03:31:01;;;;;;;20.75;9.75;;;;;;;6.46;100.00;100439.53;1694220;84;21132;-71
2021/09/16 03:33:28;;;;;;;17.73;8.35;;;;;;;6.55;100.00;100450.77;1694481;84;21915;-72
2021/09/16 03:35:54;;;;;;;19.37;10.03;;;;;;;6.62;100.00;100444.09;1694801;84;21698;-74
2021/09/16 03:38:21;;;;;;;23.12;11.57;;;;;;;6.71;100.00;100448.33;1698949;78;21028;-72
2021/09/16 03:40:47;;;;;;;20.40;9.18;;;;;;;6.76;100.00;100446.48;1696432;84;21036;-74
2021/09/16 03:43:13;;;;;;;25.12;10.98;;;;;;;6.79;100.00;100439.91;1694723;84;21529;-74
2021/09/16 03:45:41;;;;;;;13.38;7.72;;;;;;;6.85;100.00;100439.79;1695369;84;21504;-75
2021/09/16 03:48:08;;;;;;;27.02;10.68;;;;;;;6.93;100.00;100440.54;1694973;84;21147;-75
2021/09/16 03:50:36;;;;;;;21.57;9.85;;;;;;;7.03;100.00;100441.23;1694638;84;21028;-74
2021/09/16 03:53:04;;;;;;;19.48;10.45;;;;;;;7.12;100.00;100438.91;1694667;84;21662;-74
2021/09/16 03:55:31;;;;;;;21.97;10.13;;;;;;;7.22;100.00;100446.14;1694692;84;21114;-73
2021/09/16 03:57:59;;;;;;;21.70;9.80;;;;;;;7.27;100.00;100457.40;1694640;84;21109;-75
2021/09/16 04:00:26;;;;;;;22.27;11.05;;;;;;;7.32;100.00;100460.37;1694718;84;21033;-74
2021/09/16 04:02:52;;;;;;;27.13;11.83;;;;;;;7.38;100.00;100463.77;1694796;84;21052;-74
2021/09/16 04:05:19;;;;;;;27.70;11.68;;;;;;;7.39;100.00;100458.95;1697789;83;20995;-75
2021/09/16 04:07:45;;;;;;;22.17;10.48;;;;;;;7.40;100.00;100464.60;1715466;83;21571;-75
2021/09/16 04:10:12;;;;;;;21.10;11.28;;;;;;;7.53;100.00;100473.52;1723517;82;21049;-75
2021/09/16 04:12:40;;;;;;;26.55;11.53;;;;;;;7.61;99.82;100469.88;1711960;82;21097;-73
2021/09/16 04:15:09;;;;;;;23.32;11.28;;;;;;;7.67;100.00;100477.63;1690927;84;21031;-74
2021/09/16 04:17:35;;;;;;;27.22;11.90;;;;;;;7.71;99.46;100484.55;1688415;84;21077;-75
2021/09/16 04:20:02;;;;;;;21.57;11.05;;;;;;;7.73;99.11;100482.31;1688633;84;21510;-73
2021/09/16 04:22:30;;;;;;;21.93;10.70;;;;;;;7.80;98.64;100479.55;1688351;84;21735;-75
2021/09/16 04:24:57;;;;;;;23.92;12.33;;;;;;;8.22;99.35;100479.57;1703095;83;21087;-73
2021/09/16 04:27:26;;;;;;;21.30;10.50;;;;;;;8.88;98.78;100468.87;1716640;83;21018;-73
2021/09/16 04:29:52;;;;;;;27.42;10.95;;;;;;;9.59;96.78;100467.47;1717246;83;21110;-72
2021/09/16 04:32:19;;;;;;;17.98;9.15;;;;;;;10.34;94.34;100475.42;1716924;83;21364;-73
2021/09/16 04:34:47;;;;;;;17.70;9.70;;;;;;;11.03;90.44;100474.08;1716913;83;21071;-73
2021/09/16 04:37:14;;;;;;;29.05;11.15;;;;;;;11.66;87.58;100467.07;1717315;83;21113;-72
2021/09/16 04:39:40;;;;;;;24.27;10.85;;;;;;;12.24;83.86;100469.34;1717079;83;21097;-73
2021/09/16 04:42:08;;;;;;;19.87;9.98;;;;;;;12.88;81.67;100464.61;1716996;83;21593;-73
2021/09/16 04:44:35;;;;;;;28.05;9.88;;;;;;;13.56;79.50;100457.34;1716827;83;22140;-72
2021/09/16 04:47:01;;;;;;;33.98;10.55;;;;;;;14.21;75.87;100460.56;1717033;83;21130;-73
2021/09/16 04:49:28;;;;;;;29.90;9.95;;;;;;;14.82;73.20;100455.00;1717074;83;21015;-74
2021/09/16 04:51:54;;;;;;;25.52;9.25;;;;;;;15.40;70.05;100445.03;1716672;83;21621;-74
2021/09/16 04:54:21;;;;;;;20.95;8.83;;;;;;;15.85;67.39;100451.52;1695104;83;21635;-73
2021/09/16 04:56:48;;;;;;;23.62;9.13;;;;;;;16.04;65.05;100456.23;1702322;83;21364;-74
2021/09/16 04:59:15;;;;;;;18.37;8.40;;;;;;;16.37;63.47;100449.98;1695740;83;21101;-74
2021/09/16 05:01:43;;;;;;;21.55;9.10;;;;;;;16.76;62.07;100446.86;1706183;83;21620;-74
2021/09/16 05:04:10;;;;;;;14.98;7.67;;;;;;;17.19;59.51;100439.06;1697784;83;21031;-72
2021/09/16 05:06:37;;;;;;;21.80;8.35;;;;;;;17.59;58.50;100437.13;1717257;83;21097;-74
2021/09/16 05:09:05;;;;;;;19.17;8.80;;;;;;;17.98;57.18;100444.95;1710001;83;21591;-72
2021/09/16 05:11:39;;;;;;;22.32;9.13;;;;;;;18.37;55.47;100445.55;1688290;83;21062;-74
2021/09/16 05:14:02;;;;;;;25.90;9.35;;;;;;;18.62;54.31;100448.82;1692697;83;20999;-72
2021/09/16 05:16:30;;;;;;;32.87;9.27;;;;;;;18.95;54.03;100446.23;1697839;84;21009;-72
2021/09/16 05:18:58;;;;;;;40.12;9.50;;;;;;;19.39;52.86;100443.69;1699328;84;21064;-73
2021/09/16 05:21:25;;;;;;;33.05;8.88;;;;;;;19.79;51.24;100440.95;1697947;84;21889;-73
2021/09/16 05:23:55;;;;;;;29.98;8.60;;;;;;;20.09;50.59;100445.09;1692274;84;21058;-75
2021/09/16 05:26:23;;;;;;;22.25;7.22;;;;;;;20.49;49.40;100440.84;1699164;84;21053;-74
2021/09/16 05:28:55;;;;;;;23.70;6.75;;;;;;;20.98;47.70;100439.91;1727401;83;21009;-76
2021/09/16 05:31:23;;;;;;;18.07;6.35;;;;;;;21.46;45.32;100431.77;1727259;82;21048;-76
2021/09/16 05:33:51;;;;;;;16.85;5.75;;;;;;;21.95;42.97;100432.42;1727624;83;21068;-74
2021/09/16 05:36:18;;;;;;;27.15;5.85;;;;;;;21.88;42.34;100426.70;1699218;84;21619;-76
2021/09/16 05:38:46;;;;;;;21.23;6.17;;;;;;;21.66;41.54;100422.66;1727682;83;21020;-75
2021/09/16 05:41:13;;;;;;;25.27;6.85;;;;;;;21.19;41.86;100427.16;1698697;84;21061;-76
2021/09/16 05:43:39;;;;;;;22.07;5.72;;;;;;;20.79;41.72;100439.57;1728033;83;21559;-73
2021/09/16 05:46:05;;;;;;;9.93;4.17;;;;;;;20.69;41.23;100440.26;1698956;84;21586;-75
2021/09/16 05:48:32;;;;;;;20.27;5.25;;;;;;;21.05;39.46;100445.16;1719021;83;21072;-74
2021/09/16 05:50:59;;;;;;;17.20;6.05;;;;;;;21.66;39.33;100440.08;1693690;84;21566;-76
2021/09/16 05:53:25;;;;;;;14.90;6.08;;;;;;;22.27;38.07;100440.59;1688058;84;21061;-77
2021/09/16 05:55:53;;;;;;;15.55;5.17;;;;;;;22.76;37.41;100439.23;1697701;84;21065;-80
2021/09/16 05:58:20;;;;;;;17.62;5.55;;;;;;;23.25;37.00;100432.42;1720248;83;21324;-77
2021/09/16 06:00:47;;;;;;;14.85;5.95;;;;;;;23.70;36.35;100441.19;1722480;83;21016;-74
2021/09/16 06:03:13;;;;;;;23.90;5.70;;;;;;;24.13;35.27;100440.11;1719785;83;21053;-73
2021/09/16 06:05:41;;;;;;;17.48;6.00;;;;;;;24.60;34.75;100440.41;1718829;83;21079;-78
2021/09/16 06:08:09;;;;;;;23.30;4.92;;;;;;;25.05;33.94;100432.63;1718442;83;21098;-75
2021/09/16 06:10:35;;;;;;;20.72;5.35;;;;;;;25.52;33.39;100439.95;1717996;83;21059;-76
2021/09/16 06:13:03;;;;;;;25.85;6.67;;;;;;;25.83;32.38;100435.64;1718448;83;21098;-75
2021/09/16 06:15:31;;;;;;;15.38;5.58;;;;;;;26.11;31.62;100438.77;1718571;83;21067;-76
2021/09/16 06:17:59;;;;;;;20.65;5.37;;;;;;;26.26;30.36;100439.09;1723692;82;21132;-76
2021/09/16 06:20:28;;;;;;;19.25;5.62;;;;;;;26.39;30.05;100444.14;1715198;82;21065;-76
2021/09/16 06:22:56;;;;;;;21.23;5.65;;;;;;;26.65;28.79;100435.33;1718881;82;21025;-76
2021/09/16 06:25:24;;;;;;;13.13;4.97;;;;;;;26.89;28.01;100438.24;1723111;82;21470;-76
2021/09/16 06:29:29;;;;;;;19.57;6.10;;;;;;;27.42;27.38;100436.50;1780618;79;22614;-75
2021/09/16 06:31:56;;;;;;;15.98;6.10;;;;;;;27.59;27.32;100436.96;1739747;81;21050;-76
2021/09/16 06:34:25;;;;;;;20.90;5.65;;;;;;;27.71;26.53;100440.23;1750986;81;21835;-76
2021/09/16 06:36:53;;;;;;;13.50;5.60;;;;;;;27.90;26.39;100433.77;1735746;81;21086;-76
2021/09/16 06:39:25;;;;;;;17.30;5.70;;;;;;;28.17;25.40;100439.47;1696723;80;21038;-75
2021/09/16 06:41:53;;;;;;;15.83;5.10;;;;;;;28.38;23.87;100436.83;1684877;83;21145;-75
2021/09/16 06:44:20;;;;;;;14.60;5.00;;;;;;;28.48;23.63;100438.06;1676063;84;21075;-76
2021/09/16 06:46:48;;;;;;;17.37;5.30;;;;;;;28.87;22.99;100434.23;1686897;85;21053;-78
2021/09/16 06:49:17;;;;;;;13.53;5.35;;;;;;;29.19;23.12;100429.86;1687528;84;20994;-76
2021/09/16 06:51:45;;;;;;;18.40;5.70;;;;;;;29.35;21.97;100431.19;1685704;84;20993;-76
2021/09/16 06:54:12;;;;;;;15.25;4.65;;;;;;;29.31;21.98;100429.87;1687620;85;21027;-77
2021/09/16 06:56:39;;;;;;;21.62;5.37;;;;;;;29.26;22.40;100432.22;1687525;85;21560;-76
2021/09/16 06:59:06;;;;;;;25.55;6.20;;;;;;;29.22;22.01;100431.73;1687669;85;21959;-77
2021/09/16 07:01:33;;;;;;;29.45;6.97;;;;;;;29.27;22.21;100433.94;1687428;85;21046;-78
2021/09/16 07:04:00;;;;;;;35.75;7.17;;;;;;;29.37;21.73;100435.94;1687559;84;21120;-76
2021/09/16 07:06:29;;;;;;;24.25;6.65;;;;;;;29.20;22.00;100434.28;1687249;84;21065;-75
2021/09/16 07:08:56;;;;;;;22.42;6.40;;;;;;;29.25;22.11;100438.68;1686994;85;21449;-76
2021/09/16 07:11:23;;;;;;;24.92;7.12;;;;;;;29.47;21.78;100443.89;1687157;85;21136;-77
2021/09/16 07:13:51;;;;;;;34.90;7.85;;;;;;;29.54;21.63;100441.34;1685987;84;21057;-75
2021/09/16 07:16:18;;;;;;;18.50;6.72;;;;;;;29.72;20.39;100439.80;1686605;85;21070;-76
2021/09/16 07:18:46;;;;;;;16.10;4.90;;;;;;;29.47;21.31;100437.11;1685608;84;21125;-76
2021/09/16 07:21:14;;;;;;;21.70;5.40;;;;;;;29.56;20.93;100446.09;1686336;84;21121;-75
2021/09/16 07:23:40;;;;;;;35.05;7.55;;;;;;;29.63;20.38;100441.66;1684984;85;21804;-77
2021/09/16 07:26:08;;;;;;;40.85;8.00;;;;;;;29.61;20.39;100443.20;1684736;85;21583;-77
2021/09/16 07:28:37;;;;;;;32.63;8.00;;;;;;;29.62;20.23;100442.69;1685942;85;21069;-75
2021/09/16 07:31:05;;;;;;;38.92;7.75;;;;;;;29.92;20.30;100442.98;1686673;84;21141;-74
2021/09/16 07:33:32;;;;;;;41.08;8.03;;;;;;;30.36;19.78;100446.02;1685725;85;21063;-74
2021/09/16 07:35:59;;;;;;;35.92;7.47;;;;;;;30.77;19.34;100442.22;1685773;85;22118;-76
2021/09/16 07:38:26;;;;;;;21.77;5.33;;;;;;;30.95;19.29;100444.16;1680675;84;21082;-76
2021/09/16 07:40:54;;;;;;;24.15;5.72;;;;;;;31.24;19.38;100449.33;1676994;84;21050;-75
2021/09/16 07:43:21;;;;;;;24.67;5.20;;;;;;;31.42;18.89;100447.15;1677178;85;21047;-76
2021/09/16 07:45:47;;;;;;;23.05;5.33;;;;;;;31.56;19.24;100439.55;1678793;84;21031;-76
2021/09/16 07:48:14;;;;;;;38.92;8.15;;;;;;;31.82;18.79;100440.09;1678064;85;22143;-75
2021/09/16 07:50:41;;;;;;;32.40;7.65;;;;;;;31.68;17.98;100438.56;1677344;84;21098;-75
2021/09/16 07:53:10;;;;;;;30.50;7.67;;;;;;;31.10;18.81;100440.94;1677251;85;21061;-76
2021/09/16 07:55:37;;;;;;;28.07;7.25;;;;;;;30.90;18.80;100446.05;1676767;84;21574;-75
2021/09/16 07:58:05;;;;;;;32.00;7.00;;;;;;;30.95;19.90;100441.43;1676950;84;21870;-76
2021/09/16 08:00:32;;;;;;;31.00;7.10;;;;;;;31.33;19.31;100445.50;1677769;85;21131;-76
2021/09/16 08:03:00;;;;;;;25.00;6.03;;;;;;;31.47;18.37;100439.30;1650641;84;21236;-75
2021/09/16 08:05:27;;;;;;;28.77;6.90;;;;;;;31.29;18.68;100436.02;1650851;86;21053;-75
2021/09/16 08:07:53;;;;;;;19.92;5.05;;;;;;;30.96;18.70;100437.67;1650974;86;21062;-75
2021/09/16 08:10:22;;;;;;;26.20;6.87;;;;;;;30.78;18.94;100438.45;1651142;86;21074;-74
2021/09/16 08:12:50;;;;;;;25.88;5.90;;;;;;;30.53;19.33;100438.64;1663502;85;21838;-76
2021/09/16 08:15:19;;;;;;;26.52;7.05;;;;;;;30.69;19.19;100434.45;1677107;85;21086;-76
2021/09/16 08:17:46;;;;;;;27.73;7.08;;;;;;;30.84;19.13;100437.74;1677148;84;21011;-76
2021/09/16 08:20:14;;;;;;;21.45;6.00;;;;;;;30.89;18.86;100435.35;1677127;85;21031;-76
2021/09/16 08:22:44;;;;;;;20.00;5.60;;;;;;;30.79;19.09;100437.45;1676841;85;21526;-75
2021/09/16 08:25:11;;;;;;;9.93;4.20;;;;;;;30.85;19.23;100439.45;1677969;85;21161;-75
2021/09/16 08:27:37;;;;;;;10.00;4.53;;;;;;;30.52;19.62;100443.20;1678406;84;21078;-77
2021/09/16 08:30:06;;;;;;;12.80;4.12;;;;;;;30.52;19.60;100438.30;1678622;85;21230;-77
2021/09/16 08:32:34;;;;;;;9.05;3.45;;;;;;;30.78;19.40;100433.02;1678919;85;21002;-76
2021/09/16 08:35:02;;;;;;;9.05;3.60;;;;;;;30.68;19.43;100435.46;1678629;85;21109;-76
2021/09/16 08:37:28;;;;;;;9.20;3.45;;;;;;;30.21;19.94;100434.20;1678436;84;21105;-77
2021/09/16 08:39:55;;;;;;;11.45;3.50;;;;;;;30.00;20.05;100433.42;1676734;84;21026;-76
2021/09/16 08:42:25;;;;;;;8.13;2.90;;;;;;;29.86;20.13;100434.52;1674821;84;21035;-77
2021/09/16 08:44:54;;;;;;;7.03;2.83;;;;;;;29.84;20.80;100436.56;1647501;85;21386;-78
2021/09/16 08:47:21;;;;;;;7.37;3.22;;;;;;;30.08;20.38;100426.61;1647504;87;21089;-76
2021/09/16 08:49:47;;;;;;;9.38;3.40;;;;;;;30.22;20.24;100428.58;1647285;87;21137;-77
2021/09/16 08:52:16;;;;;;;9.15;3.10;;;;;;;30.37;19.64;100427.84;1673751;85;21098;-77
2021/09/16 08:54:42;;;;;;;6.30;2.05;;;;;;;30.49;19.73;100427.80;1673771;85;21578;-77
2021/09/16 08:57:13;;;;;;;4.95;1.50;;;;;;;30.67;19.90;100426.16;1673433;85;21577;-78
2021/09/16 08:59:44;;;;;;;5.05;1.60;;;;;;;31.03;19.60;100427.75;1673228;85;21114;-78
2021/09/16 09:02:10;;;;;;;4.05;1.40;;;;;;;31.49;19.09;100420.88;1672807;85;25614;-77
2021/09/16 09:04:37;;;;;;;6.40;2.00;;;;;;;31.68;18.68;100421.36;1661973;85;21036;-77
2021/09/16 09:07:06;;;;;;;5.33;1.60;;;;;;;32.02;18.88;100420.81;1671899;85;21070;-76
2021/09/16 09:09:33;;;;;;;3.42;1.72;;;;;;;32.30;18.02;100420.97;1671376;85;21158;-78
2021/09/16 09:12:13;;;;;;;5.87;1.70;;;;;;;32.06;18.25;100418.56;1671196;85;21126;-77
2021/09/16 09:14:47;;;;;;;5.62;1.75;;;;;;;31.83;18.91;100415.41;1670432;85;21043;-77
2021/09/16 09:17:25;;;;;;;6.08;1.57;;;;;;;31.92;19.12;100415.63;1672204;85;21082;-77
2021/09/16 09:19:54;;;;;;;5.90;2.12;;;;;;;32.04;18.97;100413.82;1672188;85;21041;-78
2021/09/16 09:22:34;;;;;;;2.92;1.35;;;;;;;31.95;18.62;100413.87;1671321;85;21105;-77
2021/09/16 09:25:07;;;;;;;9.50;1.80;;;;;;;31.66;18.48;100417.48;1668323;85;21068;-76
2021/09/16 09:27:42;;;;;;;5.70;2.00;;;;;;;31.01;19.15;100417.56;1669449;85;21158;-80
2021/09/16 09:30:31;;;;;;;9.40;1.90;;;;;;;30.42;19.50;100417.31;1674709;84;21003;-78
2021/09/16 09:33:05;;;;;;;8.68;2.00;;;;;;;29.62;20.25;100409.61;1669989;85;21090;-77
2021/09/16 09:35:37;;;;;;;4.08;1.60;;;;;;;29.27;21.38;100413.59;1670261;85;21134;-77
2021/09/16 09:48:03;;;;;;;6.17;1.77;;;;;;;30.28;20.54;100404.82;1796315;79;22765;-77
2021/09/16 09:50:30;;;;;;;6.17;1.90;;;;;;;30.53;20.36;100403.31;1735934;81;21278;-78
2021/09/16 09:53:12;;;;;;;5.85;2.25;;;;;;;30.56;19.74;100400.23;1759701;81;21480;-77
2021/09/16 09:55:42;;;;;;;4.97;2.65;;;;;;;30.54;20.10;100399.56;1759827;81;21818;-78
2021/09/16 09:58:12;;;;;;;6.90;2.70;;;;;;;30.68;19.89;100396.05;1758076;81;21092;-78
2021/09/16 10:00:38;;;;;;;5.00;1.67;;;;;;;30.54;19.97;100388.69;1753647;81;21106;-79
2021/09/16 10:03:05;;;;;;;6.90;2.27;;;;;;;30.46;19.73;100384.66;1728402;80;21018;-72
2021/09/16 10:05:38;;;;;;;7.33;2.62;;;;;;;30.46;19.73;100384.66;1713335;82;21864;-74
2021/09/16 10:08:10;;;;;;;8.70;2.20;;;;;;;30.37;20.32;100384.38;1724393;83;21113;-74
2021/09/16 10:10:51;;;;;;;7.17;2.05;;;;;;;30.37;20.26;100381.66;1692250;84;21095;-74
2021/09/16 10:13:20;;;;;;;3.77;1.60;;;;;;;30.34;20.51;100390.18;1681198;84;21578;-73
2021/09/16 10:15:49;;;;;;;3.20;1.52;;;;;;;30.62;20.26;100380.48;1664000;85;21084;-74
2021/09/16 10:18:17;;;;;;;4.65;1.50;;;;;;;30.77;19.92;100374.25;1684960;84;21084;-73
2021/09/16 10:20:45;;;;;;;3.25;1.40;;;;;;;30.83;20.22;100367.58;1663146;85;21133;-74
2021/09/16 10:23:12;;;;;;;4.17;1.50;;;;;;;30.83;20.22;100367.58;1671650;85;21656;-74
2021/09/16 10:25:46;;;;;;;2.47;1.57;;;;;;;30.82;20.52;100375.91;1671385;85;21041;-73
2021/09/16 10:28:14;;;;;;;2.95;1.50;;;;;;;30.54;19.80;100368.30;1671448;85;21700;-72
2021/09/16 10:30:45;;;;;;;4.42;1.52;;;;;;;30.04;20.29;100369.60;1671507;85;21155;-72
2021/09/16 10:33:24;;;;;;;5.50;1.72;;;;;;;29.81;21.07;100374.45;1671612;85;21140;-74
2021/09/16 10:36:08;;;;;;;6.45;1.40;;;;;;;29.92;20.84;100373.23;1679706;85;21046;-72
2021/09/16 10:38:44;;;;;;;3.40;1.65;;;;;;;29.92;20.93;100368.31;1691278;84;21073;-73
2021/09/16 10:41:30;;;;;;;4.33;1.67;;;;;;;30.01;21.12;100373.52;1691121;84;21148;-76
2021/09/16 10:44:05;;;;;;;7.95;1.70;;;;;;;30.37;21.37;100371.66;1691275;84;21159;-75
2021/09/16 10:46:46;;;;;;;5.15;1.70;;;;;;;30.63;21.19;100374.02;1688390;83;21066;-73
2021/09/16 10:49:27;;;;;;;4.60;1.57;;;;;;;30.91;20.08;100362.60;1672511;85;21099;-76
2021/09/16 10:52:00;;;;;;;3.58;1.60;;;;;;;31.11;20.14;100363.77;1681993;85;21512;-75
2021/09/16 10:54:54;;;;;;;4.60;1.47;;;;;;;31.32;20.25;100360.84;1719945;82;21112;-74
2021/09/16 10:57:34;;;;;;;5.83;1.60;;;;;;;31.42;20.07;100362.79;1710696;82;21151;-77
2021/09/16 11:00:13;;;;;;;5.22;1.62;;;;;;;31.40;20.08;100363.45;1713402;83;21073;-73
2021/09/16 11:02:48;;;;;;;7.92;1.90;;;;;;;31.19;20.53;100360.63;1685403;83;21096;-73
2021/09/16 11:05:21;;;;;;;6.83;2.05;;;;;;;31.05;20.68;100363.14;1692059;83;21097;-74
2021/09/16 11:07:53;;;;;;;4.78;1.70;;;;;;;31.10;20.56;100361.23;1719668;83;21673;-75
2021/09/16 11:10:29;;;;;;;3.85;1.32;;;;;;;30.93;20.07;100361.38;1684702;85;21134;-76
2021/09/16 11:13:04;;;;;;;3.98;1.65;;;;;;;30.60;20.46;100366.23;1684985;85;21096;-76
2021/09/16 11:15:36;;;;;;;4.12;1.52;;;;;;;30.42;20.66;100358.89;1684035;84;21079;-74
2021/09/16 11:18:13;;;;;;;2.75;1.60;;;;;;;30.19;21.19;100363.76;1681657;85;21068;-75
2021/09/16 11:20:45;;;;;;;9.45;2.22;;;;;;;30.01;20.91;100363.18;1641837;85;21557;-74
2021/09/16 11:23:16;;;;;;;6.28;1.47;;;;;;;30.00;21.39;100356.91;1682468;85;21113;-74
2021/09/16 11:25:46;;;;;;;6.03;1.65;;;;;;;30.06;21.73;100356.70;1676311;85;21051;-76
2021/09/16 11:28:16;;;;;;;4.33;1.47;;;;;;;30.18;22.54;100359.33;1675306;85;21044;-75
2021/09/16 11:30:45;;;;;;;4.03;1.40;;;;;;;30.19;21.54;100352.89;1675741;85;21557;-76
2021/09/16 11:33:15;;;;;;;5.42;1.57;;;;;;;30.23;22.01;100351.52;1664439;85;21041;-75
2021/09/16 11:35:42;;;;;;;2.95;1.60;;;;;;;30.16;21.97;100354.62;1678316;85;21076;-74
2021/09/16 11:38:09;;;;;;;3.45;1.77;;;;;;;30.03;21.80;100357.06;1687819;85;21041;-74
2021/09/16 11:40:39;;;;;;;4.28;1.32;;;;;;;29.77;21.56;100351.42;1687607;85;21101;-75